createdAt,value
2023-02-02T00:01:31.964Z,81.50
2023-02-02T00:03:59.437Z,81.50
2023-02-02T00:06:29.126Z,81.70
2023-02-02T00:08:58.543Z,81.70
2023-02-02T00:11:26.071Z,81.30
2023-02-02T00:13:54.070Z,81.40
2023-02-02T00:16:27.434Z,81.30
2023-02-02T00:19:00.820Z,81.40
2023-02-02T00:21:28.266Z,81.00
2023-02-02T00:23:55.715Z,80.70
2023-02-02T00:26:23.355Z,80.70
2023-02-02T00:28:50.589Z,80.90
2023-02-02T00:31:17.850Z,80.60
2023-02-02T00:33:46.551Z,80.70
2023-02-02T00:36:13.975Z,80.70
2023-02-02T00:38:41.245Z,80.60
2023-02-02T00:41:08.681Z,80.40
2023-02-02T00:43:36.075Z,80.60
2023-02-02T00:46:03.619Z,80.80
2023-02-02T00:48:31.064Z,80.90
2023-02-02T00:50:58.416Z,80.80
2023-02-02T00:53:25.609Z,80.40
2023-02-02T00:55:52.827Z,80.50
2023-02-02T00:58:20.047Z,80.50
2023-02-02T01:00:48.140Z,80.50
2023-02-02T01:03:16.178Z,80.20
2023-02-02T01:05:43.344Z,80.10
2023-02-02T01:08:10.801Z,80.10
2023-02-02T01:10:38.034Z,80.10
2023-02-02T01:13:05.236Z,80.00
2023-02-02T01:15:32.438Z,80.10
2023-02-02T01:17:59.628Z,80.10
2023-02-02T01:20:26.920Z,79.90
2023-02-02T01:22:54.316Z,79.90
2023-02-02T01:25:21.768Z,79.60
2023-02-02T01:27:49.188Z,79.60
2023-02-02T01:30:16.623Z,79.10
2023-02-02T01:32:43.849Z,79.20
2023-02-02T01:35:11.212Z,79.20
2023-02-02T01:37:39.362Z,79.10
2023-02-02T01:40:07.702Z,79.10
2023-02-02T01:42:34.941Z,79.20
2023-02-02T01:45:28.433Z,78.70
2023-02-02T01:47:59.328Z,78.10
2023-02-02T01:50:31.516Z,78.70
2023-02-02T01:53:02.219Z,78.20
2023-02-02T01:55:32.671Z,78.00
2023-02-02T01:58:10.014Z,78.30
2023-02-02T02:00:39.646Z,77.70
2023-02-02T02:03:11.468Z,77.70
2023-02-02T02:05:44.447Z,77.50
2023-02-02T02:08:18.122Z,77.80
2023-02-02T02:10:45.803Z,77.70
2023-02-02T02:13:13.577Z,77.50
2023-02-02T02:16:16.489Z,77.80
2023-02-02T02:19:12.234Z,77.60
2023-02-02T02:22:21.189Z,77.70
2023-02-02T02:25:29.202Z,78.00
2023-02-02T02:28:16.433Z,78.20
2023-02-02T02:31:00.578Z,78.30
2023-02-02T02:34:07.902Z,78.30
2023-02-02T02:36:42.971Z,78.90
2023-02-02T02:39:31.421Z,79.30
2023-02-02T02:42:04.163Z,78.90
2023-02-02T02:44:33.422Z,79.00
2023-02-02T02:47:00.942Z,79.30
2023-02-02T02:49:28.667Z,79.20
2023-02-02T02:51:56.773Z,79.00
2023-02-02T02:54:38.097Z,78.80
2023-02-02T02:57:33.178Z,78.80
2023-02-02T03:00:28.422Z,78.30
2023-02-02T03:03:14.122Z,78.00
2023-02-02T03:06:03.004Z,77.80
2023-02-02T03:08:46.251Z,77.60
2023-02-02T03:11:16.148Z,77.30
2023-02-02T03:13:44.535Z,77.30
2023-02-02T03:16:11.864Z,76.90
2023-02-02T03:18:39.873Z,77.00
2023-02-02T03:21:08.105Z,77.20
2023-02-02T03:23:35.743Z,77.40
2023-02-02T03:26:03.074Z,77.80
2023-02-02T03:28:34.288Z,77.80
2023-02-02T03:31:02.340Z,77.90
2023-02-02T03:33:32.911Z,77.90
2023-02-02T03:36:00.374Z,78.00
2023-02-02T03:38:27.955Z,78.30
2023-02-02T03:40:58.252Z,78.40
2023-02-02T03:43:28.115Z,78.00
2023-02-02T03:45:59.190Z,77.90
2023-02-02T03:48:28.244Z,78.30
2023-02-02T03:50:55.573Z,78.30
2023-02-02T03:53:23.860Z,78.30
2023-02-02T03:55:52.873Z,78.30
2023-02-02T03:58:22.323Z,78.50
2023-02-02T04:00:50.754Z,78.60
2023-02-02T04:03:18.197Z,78.90
2023-02-02T04:05:50.029Z,78.90
2023-02-02T04:08:21.749Z,79.30
2023-02-02T04:10:50.253Z,79.80
2023-02-02T04:13:17.751Z,80.00
2023-02-02T04:15:45.323Z,80.20
2023-02-02T04:18:12.910Z,80.50
2023-02-02T04:20:40.337Z,80.40
2023-02-02T04:23:10.701Z,80.50
2023-02-02T04:25:38.036Z,80.60
2023-02-02T04:28:05.355Z,80.40
2023-02-02T04:30:32.638Z,80.50
2023-02-02T04:33:09.286Z,80.30
2023-02-02T04:36:06.234Z,80.10
2023-02-02T04:38:33.777Z,80.10
2023-02-02T04:41:08.783Z,80.20
2023-02-02T04:43:39.749Z,80.20
2023-02-02T04:46:07.664Z,80.40
2023-02-02T04:48:35.085Z,80.70
2023-02-02T04:51:09.108Z,80.70
2023-02-02T04:53:38.787Z,80.60
2023-02-02T04:56:09.594Z,80.80
2023-02-02T04:58:36.880Z,80.60
2023-02-02T05:01:14.984Z,80.80
2023-02-02T05:03:46.514Z,80.70
2023-02-02T05:06:16.110Z,80.90
2023-02-02T05:08:44.438Z,81.00
2023-02-02T05:12:19.157Z,81.10
2023-02-02T05:14:46.357Z,81.10
2023-02-02T05:17:13.622Z,80.70
2023-02-02T05:19:41.816Z,80.80
2023-02-02T05:22:09.342Z,80.60
2023-02-02T05:24:37.988Z,80.50
2023-02-02T05:27:07.542Z,80.60
2023-02-02T05:29:37.081Z,80.80
2023-02-02T05:32:09.710Z,80.90
2023-02-02T05:34:37.012Z,80.70
2023-02-02T05:37:04.223Z,80.50
2023-02-02T05:39:31.416Z,80.70
2023-02-02T05:41:58.829Z,80.60
2023-02-02T05:44:26.053Z,80.70
2023-02-02T05:46:53.262Z,81.10
2023-02-02T05:49:20.526Z,80.90
2023-02-02T05:51:50.119Z,81.00
2023-02-02T05:54:20.391Z,81.00
2023-02-02T05:56:49.028Z,80.70
2023-02-02T05:59:17.500Z,80.90
2023-02-02T06:01:45.999Z,80.70
2023-02-02T06:04:16.284Z,80.90
2023-02-02T06:06:43.921Z,80.90
2023-02-02T06:09:11.263Z,81.10
2023-02-02T06:11:39.485Z,81.00
2023-02-02T06:14:07.672Z,80.70
2023-02-02T06:16:34.900Z,80.70
2023-02-02T06:19:02.188Z,80.90
2023-02-02T06:21:31.243Z,81.00
2023-02-02T06:23:59.391Z,81.00
2023-02-02T06:26:27.012Z,81.20
2023-02-02T06:28:55.274Z,81.30
2023-02-02T06:31:23.139Z,81.70
2023-02-02T06:33:56.916Z,81.60
2023-02-02T06:36:26.285Z,81.90
2023-02-02T06:38:55.774Z,82.20
2023-02-02T06:41:24.379Z,82.30
2023-02-02T06:43:51.886Z,82.40
2023-02-02T06:46:19.210Z,82.60
2023-02-02T06:48:48.602Z,82.90
2023-02-02T06:51:15.862Z,83.20
2023-02-02T06:53:52.234Z,83.40
2023-02-02T06:56:19.444Z,83.70
2023-02-02T06:58:46.614Z,83.70
2023-02-02T07:01:14.592Z,83.80
2023-02-02T07:03:42.363Z,84.00
2023-02-02T07:06:22.289Z,84.00
2023-02-02T07:09:01.068Z,84.00
2023-02-02T07:11:38.523Z,84.00
2023-02-02T07:14:12.166Z,83.90
2023-02-02T07:16:39.373Z,83.90
2023-02-02T07:19:06.636Z,83.80
2023-02-02T07:21:36.344Z,83.80
2023-02-02T07:24:06.894Z,83.90
2023-02-02T07:26:35.957Z,83.70
2023-02-02T07:29:04.477Z,84.00
2023-02-02T07:31:36.387Z,84.20
2023-02-02T07:34:04.143Z,84.20
2023-02-02T07:36:31.339Z,84.30
2023-02-02T07:38:59.616Z,84.30
2023-02-02T07:41:27.866Z,84.30
2023-02-02T07:43:55.057Z,84.30
2023-02-02T07:46:26.343Z,84.40
2023-02-02T07:48:57.833Z,84.00
2023-02-02T07:51:25.844Z,84.30
2023-02-02T07:54:29.455Z,84.00
2023-02-02T07:56:56.712Z,83.70
2023-02-02T07:59:23.971Z,84.00
2023-02-02T08:01:56.421Z,83.30
2023-02-02T08:04:23.616Z,83.50
2023-02-02T08:06:50.888Z,83.10
2023-02-02T08:09:18.062Z,82.70
2023-02-02T08:11:46.368Z,82.20
2023-02-02T08:14:14.264Z,82.10
2023-02-02T08:16:41.511Z,81.70
2023-02-02T08:19:11.013Z,81.60
2023-02-02T08:21:38.522Z,81.30
2023-02-02T08:24:07.935Z,81.60
2023-02-02T08:26:35.223Z,81.80
2023-02-02T08:29:06.174Z,82.20
2023-02-02T08:31:39.572Z,82.30
2023-02-02T08:34:07.029Z,82.10
2023-02-02T08:36:36.927Z,82.30
2023-02-02T08:39:07.021Z,82.30
2023-02-02T08:41:34.561Z,82.30
2023-02-02T08:44:01.755Z,82.50
2023-02-02T08:46:29.260Z,82.60
2023-02-02T08:48:56.545Z,82.30
2023-02-02T08:51:23.897Z,82.30
2023-02-02T08:53:53.164Z,82.40
2023-02-02T08:56:21.775Z,82.20
2023-02-02T08:58:51.629Z,82.30
2023-02-02T09:01:26.022Z,81.60
2023-02-02T09:03:58.819Z,82.10
2023-02-02T09:06:33.239Z,82.20
2023-02-02T09:09:00.931Z,81.40
2023-02-02T09:11:54.184Z,80.80
2023-02-02T09:14:28.052Z,80.50
2023-02-02T09:16:55.360Z,80.10
2023-02-02T09:19:22.612Z,80.30
2023-02-02T09:21:50.710Z,80.40
2023-02-02T09:24:18.397Z,80.40
2023-02-02T09:26:46.034Z,80.40
2023-02-02T09:29:16.133Z,80.60
2023-02-02T09:31:43.495Z,80.20
2023-02-02T09:34:12.822Z,79.60
2023-02-02T09:36:41.691Z,80.10
2023-02-02T09:39:12.646Z,79.40
2023-02-02T09:41:40.447Z,79.80
2023-02-02T09:44:35.337Z,79.60
2023-02-02T09:47:59.035Z,80.10
2023-02-02T09:50:54.022Z,79.50
2023-02-02T09:53:46.045Z,79.20
2023-02-02T09:56:34.275Z,79.20
2023-02-02T09:59:18.728Z,79.60
2023-02-02T10:01:52.011Z,79.30
2023-02-02T10:04:29.711Z,79.20
2023-02-02T10:07:00.707Z,78.00
2023-02-02T10:09:27.923Z,77.30
2023-02-02T10:12:19.963Z,78.20
2023-02-02T10:14:59.024Z,77.80
2023-02-02T10:17:48.013Z,79.10
2023-02-02T10:20:30.493Z,78.90
2023-02-02T10:23:06.458Z,77.90
2023-02-02T10:25:35.206Z,76.30
2023-02-02T10:28:18.225Z,75.90
2023-02-02T10:30:49.858Z,77.10
2023-02-02T10:33:40.874Z,77.10
2023-02-02T10:36:23.337Z,78.10
2023-02-02T10:39:03.522Z,78.00
2023-02-02T10:42:06.965Z,77.90
2023-02-02T10:44:51.928Z,77.90
2023-02-02T10:47:32.344Z,78.40
2023-02-02T10:50:15.304Z,79.30
2023-02-02T10:52:49.968Z,79.10
2023-02-02T10:55:35.711Z,79.60
2023-02-02T10:58:13.417Z,80.40
2023-02-02T11:00:53.116Z,80.40
2023-02-02T11:03:27.366Z,80.00
2023-02-02T11:06:13.689Z,78.80
2023-02-02T11:08:42.987Z,77.60
2023-02-02T11:11:20.971Z,77.70
2023-02-02T11:14:11.178Z,78.20
2023-02-02T11:16:43.644Z,76.50
2023-02-02T11:19:17.464Z,74.70
2023-02-02T11:22:23.121Z,74.90
2023-02-02T11:24:51.933Z,74.00
2023-02-02T11:27:31.677Z,73.00
2023-02-02T11:30:33.195Z,70.30
2023-02-02T11:33:18.847Z,68.20
2023-02-02T11:35:57.963Z,68.30
2023-02-02T11:38:26.308Z,68.60
2023-02-02T11:41:04.070Z,68.10
2023-02-02T11:43:40.990Z,68.10
2023-02-02T11:46:32.835Z,66.00
2023-02-02T11:49:13.428Z,67.50
2023-02-02T11:51:40.917Z,68.40
2023-02-02T11:54:18.163Z,67.60
2023-02-02T11:56:51.730Z,65.90
2023-02-02T11:59:40.372Z,66.50
2023-02-02T12:02:19.946Z,65.10
2023-02-02T12:05:09.800Z,64.40
2023-02-02T12:07:37.557Z,65.80
2023-02-02T12:10:20.197Z,66.60
2023-02-02T12:13:00.595Z,65.30
2023-02-02T12:15:56.833Z,66.60
2023-02-02T12:18:39.162Z,66.40
2023-02-02T12:21:12.490Z,65.30
2023-02-02T12:23:46.580Z,62.80
2023-02-02T12:26:31.321Z,64.80
2023-02-02T12:29:22.716Z,67.40
2023-02-02T12:32:22.635Z,67.60
2023-02-02T12:34:58.787Z,68.80
2023-02-02T12:37:47.699Z,69.30
2023-02-02T12:40:30.063Z,68.90
2023-02-02T12:43:18.861Z,70.20
2023-02-02T12:45:55.228Z,70.10
2023-02-02T12:48:50.472Z,68.50
2023-02-02T12:51:17.715Z,67.90
2023-02-02T12:54:34.761Z,68.60
2023-02-02T12:56:57.406Z,68.90
2023-02-02T12:59:51.743Z,67.80
2023-02-02T13:02:35.043Z,67.00
2023-02-02T13:05:15.131Z,67.60
2023-02-02T13:08:04.713Z,68.60
2023-02-02T13:10:39.411Z,68.50
2023-02-02T13:13:20.257Z,69.80
2023-02-02T13:15:54.306Z,71.50
2023-02-02T13:18:48.374Z,72.70
2023-02-02T13:21:22.674Z,73.40
2023-02-02T13:23:55.542Z,71.00
2023-02-02T13:26:35.139Z,71.10
2023-02-02T13:29:19.507Z,70.30
2023-02-02T13:32:05.442Z,69.60
2023-02-02T13:34:48.675Z,66.40
2023-02-02T13:37:42.473Z,66.50
2023-02-02T13:40:35.700Z,66.80
2023-02-02T13:43:18.317Z,68.10
2023-02-02T13:46:16.838Z,69.70
2023-02-02T13:49:03.253Z,71.10
2023-02-02T13:51:54.780Z,72.20
2023-02-02T13:54:45.599Z,72.40
2023-02-02T13:57:41.474Z,69.30
2023-02-02T14:00:25.337Z,65.70
2023-02-02T14:02:56.170Z,62.60
2023-02-02T14:05:30.133Z,59.30
2023-02-02T14:08:19.090Z,58.00
2023-02-02T14:11:07.737Z,57.00
2023-02-02T14:14:02.157Z,57.10
2023-02-02T14:16:35.594Z,57.40
2023-02-02T14:19:05.053Z,57.70
2023-02-02T14:21:34.953Z,59.60
2023-02-02T14:24:27.266Z,59.80
2023-02-02T14:27:01.526Z,60.30
2023-02-02T14:29:31.775Z,60.20
2023-02-02T14:32:28.721Z,59.30
2023-02-02T14:34:56.859Z,59.00
2023-02-02T14:37:24.006Z,58.30
2023-02-02T14:40:06.298Z,60.10
2023-02-02T14:43:36.415Z,61.30
2023-02-02T14:46:12.893Z,63.30
2023-02-02T14:48:41.039Z,64.20
2023-02-02T14:51:18.575Z,65.20
2023-02-02T14:53:53.198Z,66.80
2023-02-02T14:56:21.959Z,67.90
2023-02-02T14:59:00.154Z,67.40
2023-02-02T15:01:33.524Z,67.00
2023-02-02T15:04:00.708Z,67.00
2023-02-02T15:06:30.781Z,67.90
2023-02-02T15:09:19.904Z,69.30
2023-02-02T15:12:01.038Z,69.60
2023-02-02T15:14:34.107Z,69.10
2023-02-02T15:17:39.906Z,69.50
2023-02-02T15:23:59.982Z,69.70
2023-02-02T15:26:37.071Z,70.40
2023-02-02T15:29:17.254Z,71.50
2023-02-02T15:31:50.035Z,72.70
2023-02-02T15:34:30.081Z,73.70
2023-02-02T15:37:02.536Z,74.60
2023-02-02T15:39:49.362Z,75.10
2023-02-02T15:42:52.865Z,75.50
2023-02-02T15:45:38.015Z,75.70
2023-02-02T15:48:19.153Z,76.90
2023-02-02T15:51:00.772Z,77.00
2023-02-02T15:53:32.297Z,77.20
2023-02-02T15:56:29.546Z,77.60
2023-02-02T15:59:00.569Z,78.00
2023-02-02T16:01:32.973Z,78.40
2023-02-02T16:04:29.013Z,78.80
2023-02-02T16:06:57.010Z,79.10
2023-02-02T16:09:27.932Z,79.00
2023-02-02T16:11:55.362Z,79.20
2023-02-02T16:14:23.738Z,79.10
2023-02-02T16:16:53.005Z,79.50
2023-02-02T16:19:25.306Z,80.00
2023-02-02T16:22:02.446Z,80.40
2023-02-02T16:24:49.316Z,79.60
2023-02-02T16:27:25.261Z,79.60
2023-02-02T16:29:53.451Z,79.40
2023-02-02T16:32:32.334Z,78.80
2023-02-02T16:35:01.023Z,78.60
2023-02-02T16:37:32.275Z,78.60
2023-02-02T16:40:29.432Z,78.50
2023-02-02T16:43:07.741Z,78.60
2023-02-02T16:46:07.363Z,78.70
2023-02-02T16:49:14.274Z,78.80
2023-02-02T16:51:41.578Z,78.10
2023-02-02T16:54:18.267Z,78.50
2023-02-02T16:56:51.635Z,77.90
2023-02-02T16:59:26.406Z,78.00
2023-02-02T17:01:59.571Z,78.30
2023-02-02T17:04:29.204Z,78.30
2023-02-02T17:07:05.825Z,79.10
2023-02-02T17:09:40.805Z,79.50
2023-02-02T17:12:32.000Z,79.50
2023-02-02T17:15:06.008Z,80.10
2023-02-02T17:17:33.329Z,80.50
2023-02-02T17:20:00.572Z,81.40
2023-02-02T17:22:27.927Z,81.80
2023-02-02T17:24:55.166Z,82.20
2023-02-02T17:27:29.024Z,82.80
2023-02-02T17:29:57.304Z,83.00
2023-02-02T17:32:24.986Z,83.70
2023-02-02T17:34:52.286Z,83.80
2023-02-02T17:37:19.654Z,84.20
2023-02-02T17:39:47.115Z,84.70
2023-02-02T17:42:24.850Z,84.80
2023-02-02T17:44:52.318Z,84.70
2023-02-02T17:47:20.240Z,84.70
2023-02-02T17:49:47.602Z,84.40
2023-02-02T17:52:19.717Z,84.60
2023-02-02T17:54:46.943Z,84.60
2023-02-02T17:57:15.613Z,84.60
2023-02-02T17:59:47.967Z,84.90
2023-02-02T18:02:16.344Z,85.10
2023-02-02T18:04:45.913Z,85.50
2023-02-02T18:07:13.377Z,85.70
2023-02-02T18:09:43.858Z,85.90
2023-02-02T18:12:11.301Z,85.90
2023-02-02T18:14:40.741Z,85.90
2023-02-02T18:17:09.033Z,86.00
2023-02-02T18:19:36.416Z,86.30
2023-02-02T18:22:03.702Z,86.10
2023-02-02T18:24:30.913Z,86.20
2023-02-02T18:27:00.208Z,86.20
2023-02-02T18:29:27.563Z,86.20
2023-02-02T18:31:54.925Z,86.50
2023-02-02T18:34:22.266Z,86.60
2023-02-02T18:36:49.514Z,86.60
2023-02-02T18:39:16.766Z,86.70
2023-02-02T18:41:43.943Z,86.50
2023-02-02T18:44:11.471Z,86.60
2023-02-02T18:46:38.672Z,86.60
2023-02-02T18:49:05.939Z,86.50
2023-02-02T18:51:33.179Z,86.90
2023-02-02T18:54:00.583Z,86.90
2023-02-02T18:56:29.853Z,86.50
2023-02-02T18:58:58.584Z,86.70
2023-02-02T19:01:26.600Z,86.90
2023-02-02T19:03:57.038Z,87.10
2023-02-02T19:06:44.477Z,87.70
2023-02-02T19:09:13.903Z,88.00
2023-02-02T19:11:45.117Z,88.30
2023-02-02T19:14:16.049Z,88.30
2023-02-02T19:16:45.158Z,88.30
2023-02-02T19:19:25.658Z,88.30
2023-02-02T19:21:56.441Z,88.30
2023-02-02T19:24:33.835Z,88.60
2023-02-02T19:27:01.505Z,88.90
2023-02-02T19:29:55.777Z,88.80
2023-02-02T19:32:25.842Z,88.70
2023-02-02T19:35:04.594Z,88.60
2023-02-02T19:37:33.341Z,88.70
2023-02-02T19:40:09.594Z,88.60
2023-02-02T19:42:45.706Z,88.70
2023-02-02T19:45:33.827Z,88.60
2023-02-02T19:48:14.880Z,88.60
2023-02-02T19:50:42.400Z,88.90
2023-02-02T19:53:23.660Z,88.90
2023-02-02T19:55:52.147Z,88.70
2023-02-02T19:58:25.434Z,88.40
2023-02-02T20:00:54.737Z,88.10
2023-02-02T20:03:46.466Z,87.80
2023-02-02T20:06:24.658Z,87.40
2023-02-02T20:08:53.971Z,87.20
2023-02-02T20:11:35.410Z,87.10
2023-02-02T20:14:30.197Z,87.20
2023-02-02T20:17:16.473Z,87.10
2023-02-02T20:19:49.153Z,86.90
2023-02-02T20:22:25.747Z,86.80
2023-02-02T20:24:54.646Z,87.00
2023-02-02T20:27:26.537Z,87.00
2023-02-02T20:29:57.621Z,87.00
2023-02-02T20:32:30.174Z,86.90
2023-02-02T20:34:59.100Z,86.70
2023-02-02T20:37:29.601Z,86.60
2023-02-02T20:39:58.880Z,86.50
2023-02-02T20:42:26.152Z,86.60
2023-02-02T20:44:53.544Z,86.50
2023-02-02T20:47:21.358Z,86.30
2023-02-02T20:49:48.831Z,86.50
2023-02-02T20:52:23.246Z,86.60
2023-02-02T20:54:51.778Z,86.70
2023-02-02T20:57:19.026Z,86.80
2023-02-02T20:59:46.289Z,86.70
2023-02-02T21:02:19.036Z,86.50
2023-02-02T21:04:47.759Z,86.20
2023-02-02T21:07:17.053Z,86.10
2023-02-02T21:09:45.744Z,86.30
2023-02-02T21:12:13.126Z,86.30
2023-02-02T21:14:40.653Z,86.50
2023-02-02T21:17:15.155Z,86.70
2023-02-02T21:19:43.715Z,86.90
2023-02-02T21:22:11.691Z,87.10
2023-02-02T21:24:39.058Z,87.10
2023-02-02T21:27:06.753Z,87.10
2023-02-02T21:29:34.116Z,87.30
2023-02-02T21:32:02.779Z,87.40
2023-02-02T21:34:30.898Z,87.30
2023-02-02T21:36:59.631Z,87.30
2023-02-02T21:39:33.465Z,87.20
2023-02-02T21:42:09.759Z,87.10
2023-02-02T21:44:40.243Z,87.20
2023-02-02T21:47:27.263Z,87.50
2023-02-02T21:49:56.948Z,87.50
2023-02-02T21:52:29.640Z,87.60
2023-02-02T21:54:56.967Z,87.50
2023-02-02T21:57:37.440Z,87.40
2023-02-02T22:00:25.137Z,87.60
2023-02-02T22:02:53.986Z,87.60
2023-02-02T22:05:34.417Z,87.50
2023-02-02T22:08:07.883Z,87.80
2023-02-02T22:10:38.106Z,88.00
2023-02-02T22:13:23.927Z,87.80
2023-02-02T22:15:52.876Z,87.90
2023-02-02T22:18:23.213Z,88.10
2023-02-02T22:20:52.643Z,88.20
2023-02-02T22:23:22.307Z,88.40
2023-02-02T22:25:53.065Z,88.40
2023-02-02T22:28:23.481Z,88.00
2023-02-02T22:30:52.168Z,88.30
2023-02-02T22:33:19.929Z,88.40
2023-02-02T22:35:47.221Z,88.40
2023-02-02T22:38:20.367Z,88.20
2023-02-02T22:40:48.610Z,88.20
2023-02-02T22:43:16.812Z,88.30
2023-02-02T22:45:44.661Z,88.70
2023-02-02T22:48:12.821Z,88.80
2023-02-02T22:50:40.228Z,88.90
2023-02-02T22:53:07.441Z,88.80
2023-02-02T22:55:34.793Z,89.00
2023-02-02T22:58:02.085Z,89.20
2023-02-02T23:00:32.957Z,89.30
2023-02-02T23:03:00.344Z,89.20
2023-02-02T23:05:28.498Z,89.50
2023-02-02T23:07:56.274Z,89.30
2023-02-02T23:10:26.490Z,89.30
2023-02-02T23:12:55.881Z,89.50
2023-02-02T23:15:23.266Z,89.40
2023-02-02T23:17:50.737Z,89.60
2023-02-02T23:20:18.644Z,89.60
2023-02-02T23:22:45.869Z,89.80
2023-02-02T23:25:13.681Z,90.00
2023-02-02T23:27:41.688Z,90.20
2023-02-02T23:30:14.270Z,90.40
2023-02-02T23:32:42.153Z,90.20
2023-02-02T23:35:10.958Z,89.90
2023-02-02T23:37:38.646Z,90.10
2023-02-02T23:40:06.444Z,90.20
2023-02-02T23:42:34.020Z,90.40
2023-02-02T23:45:01.241Z,90.50
2023-02-02T23:47:28.541Z,90.70
2023-02-02T23:49:55.920Z,90.80
2023-02-02T23:52:23.599Z,91.00
2023-02-02T23:54:52.738Z,90.90
2023-02-02T23:57:20.377Z,91.00
2023-02-02T23:59:47.566Z,91.00
